Jamestown, Virginia
Current Conditions -  °F | °C
As of 4:58 AM on Sunday 25 Jan 2015 (Local Time) from KFAF Reporting Station
Clear Clear  
Wind Chill: 35°   Ceiling: Unl
Heat Index: 35°   Visibility: 10mi
Dew Point: 29°   Wind: 2mph
Humidity: 81%   Direction: 330°NNW
Pressure: 29.82"   Gusts: NA
Location:  37.21°N, 76.77°W
Report Text: KFAF 250958Z AUTO 33002KT 10SM CLR 02/M01 A2982 RMK AO2 SLP101 T00151014 $
Loading
Personal Weather Stations






























Interactive Weather Map New forecast layout! Learn more

10-Day Weather Forecast

Advertisements
Track Severe Weather on mobile